sensor_id;sensor_type;location;lat;lon;timestamp;P1;durP1;ratioP1;P2;durP2;ratioP2
23360;SDS011;11852;50.082;18.554;2023-05-20T00:01:05;25.0;;;16.0;;
23360;SDS011;11852;50.082;18.554;2023-05-20T00:02:16;22.0;;;15.0;;
23360;SDS011;11852;50.082;18.554;2023-05-20T00:03:24;22.0;;;16.0;;
23360;SDS011;11852;50.082;18.554;2023-05-20T00:05:16;22.0;;;16.0;;
23360;SDS011;11852;50.082;18.554;2023-05-20T00:06:57;22.0;;;16.0;;
23360;SDS011;11852;50.082;18.554;2023-05-20T00:08:32;22.0;;;16.0;;
23360;SDS011;11852;50.082;18.554;2023-05-20T00:09:39;21.0;;;15.0;;
23360;SDS011;11852;50.082;18.554;2023-05-20T00:10:47;20.0;;;15.0;;
23360;SDS011;11852;50.082;18.554;2023-05-20T00:11:54;19.0;;;15.0;;
23360;SDS011;11852;50.082;18.554;2023-05-20T00:13:18;20.0;;;15.0;;
23360;SDS011;11852;50.082;18.554;2023-05-20T00:14:25;21.0;;;14.0;;
23360;SDS011;11852;50.082;18.554;2023-05-20T00:15:48;18.0;;;14.0;;
23360;SDS011;11852;50.082;18.554;2023-05-20T00:16:55;20.0;;;14.0;;
23360;SDS011;11852;50.082;18.554;2023-05-20T00:18:36;20.0;;;14.0;;
23360;SDS011;11852;50.082;18.554;2023-05-20T00:19:51;20.0;;;14.0;;
23360;SDS011;11852;50.082;18.554;2023-05-20T00:21:17;20.0;;;14.0;;
23360;SDS011;11852;50.082;18.554;2023-05-20T00:22:33;21.0;;;14.0;;
23360;SDS011;11852;50.082;18.554;2023-05-20T00:23:42;19.0;;;14.0;;
23360;SDS011;11852;50.082;18.554;2023-05-20T00:24:55;19.0;;;13.0;;
23360;SDS011;11852;50.082;18.554;2023-05-20T00:26:09;18.0;;;13.0;;
23360;SDS011;11852;50.082;18.554;2023-05-20T00:27:38;18.0;;;15.0;;
23360;SDS011;11852;50.082;18.554;2023-05-20T00:30:14;18.0;;;15.0;;
23360;SDS011;11852;50.082;18.554;2023-05-20T00:31:43;18.0;;;14.0;;
23360;SDS011;11852;50.082;18.554;2023-05-20T00:33:38;18.0;;;14.0;;
23360;SDS011;11852;50.082;18.554;2023-05-20T00:35:53;18.0;;;14.0;;
23360;SDS011;11852;50.082;18.554;2023-05-20T00:37:00;19.0;;;14.0;;
23360;SDS011;11852;50.082;18.554;2023-05-20T00:38:36;19.0;;;14.0;;
23360;SDS011;11852;50.082;18.554;2023-05-20T00:39:51;20.0;;;14.0;;
23360;SDS011;11852;50.082;18.554;2023-05-20T00:41:28;20.0;;;14.0;;
23360;SDS011;11852;50.082;18.554;2023-05-20T00:44:28;20.0;;;14.0;;
23360;SDS011;11852;50.082;18.554;2023-05-20T00:46:08;20.0;;;14.0;;
23360;SDS011;11852;50.082;18.554;2023-05-20T00:47:15;20.0;;;14.0;;
23360;SDS011;11852;50.082;18.554;2023-05-20T00:48:21;20.0;;;14.0;;
23360;SDS011;11852;50.082;18.554;2023-05-20T00:49:32;23.0;;;15.0;;
23360;SDS011;11852;50.082;18.554;2023-05-20T00:50:40;19.0;;;13.0;;
23360;SDS011;11852;50.082;18.554;2023-05-20T00:51:54;20.0;;;13.0;;
23360;SDS011;11852;50.082;18.554;2023-05-20T00:54:00;20.0;;;13.0;;
23360;SDS011;11852;50.082;18.554;2023-05-20T00:56:05;20.0;;;13.0;;
23360;SDS011;11852;50.082;18.554;2023-05-20T00:57:12;22.0;;;14.0;;
23360;SDS011;11852;50.082;18.554;2023-05-20T00:58:25;20.0;;;14.0;;
23360;SDS011;11852;50.082;18.554;2023-05-20T00:59:42;22.0;;;15.0;;
23360;SDS011;11852;50.082;18.554;2023-05-20T01:00:49;20.0;;;14.0;;
23360;SDS011;11852;50.082;18.554;2023-05-20T01:01:56;21.0;;;15.0;;
23360;SDS011;11852;50.082;18.554;2023-05-20T01:03:02;21.0;;;15.0;;
23360;SDS011;11852;50.082;18.554;2023-05-20T01:04:12;20.0;;;14.0;;
23360;SDS011;11852;50.082;18.554;2023-05-20T01:05:20;20.0;;;15.0;;
23360;SDS011;11852;50.082;18.554;2023-05-20T01:06:29;21.0;;;15.0;;
23360;SDS011;11852;50.082;18.554;2023-05-20T01:07:44;20.0;;;15.0;;
23360;SDS011;11852;50.082;18.554;2023-05-20T01:09:00;20.0;;;14.0;;
23360;SDS011;11852;50.082;18.554;2023-05-20T01:10:07;21.0;;;15.0;;
23360;SDS011;11852;50.082;18.554;2023-05-20T01:11:21;20.0;;;14.0;;
23360;SDS011;11852;50.082;18.554;2023-05-20T01:13:45;22.0;;;15.0;;
23360;SDS011;11852;50.082;18.554;2023-05-20T01:15:13;22.0;;;14.0;;
23360;SDS011;11852;50.082;18.554;2023-05-20T01:16:19;21.0;;;15.0;;
23360;SDS011;11852;50.082;18.554;2023-05-20T01:17:32;22.0;;;15.0;;
23360;SDS011;11852;50.082;18.554;2023-05-20T01:18:41;22.0;;;14.0;;
23360;SDS011;11852;50.082;18.554;2023-05-20T01:19:48;20.0;;;14.0;;
23360;SDS011;11852;50.082;18.554;2023-05-20T01:20:56;20.0;;;14.0;;
23360;SDS011;11852;50.082;18.554;2023-05-20T01:22:04;21.0;;;14.0;;
23360;SDS011;11852;50.082;18.554;2023-05-20T01:23:20;21.0;;;15.0;;
23360;SDS011;11852;50.082;18.554;2023-05-20T01:24:29;20.0;;;14.0;;
23360;SDS011;11852;50.082;18.554;2023-05-20T01:25:38;19.0;;;13.0;;
23360;SDS011;11852;50.082;18.554;2023-05-20T01:26:50;20.0;;;14.0;;
23360;SDS011;11852;50.082;18.554;2023-05-20T01:28:54;20.0;;;14.0;;
23360;SDS011;11852;50.082;18.554;2023-05-20T01:30:09;21.0;;;14.0;;
23360;SDS011;11852;50.082;18.554;2023-05-20T01:31:50;21.0;;;14.0;;
23360;SDS011;11852;50.082;18.554;2023-05-20T01:33:08;22.0;;;14.0;;
23360;SDS011;11852;50.082;18.554;2023-05-20T01:34:19;20.0;;;14.0;;
23360;SDS011;11852;50.082;18.554;2023-05-20T01:35:27;20.0;;;14.0;;
23360;SDS011;11852;50.082;18.554;2023-05-20T01:36:35;20.0;;;13.0;;
23360;SDS011;11852;50.082;18.554;2023-05-20T01:38:19;20.0;;;13.0;;
23360;SDS011;11852;50.082;18.554;2023-05-20T01:39:34;21.0;;;15.0;;
23360;SDS011;11852;50.082;18.554;2023-05-20T01:41:01;21.0;;;15.0;;
23360;SDS011;11852;50.082;18.554;2023-05-20T01:42:24;21.0;;;14.0;;
23360;SDS011;11852;50.082;18.554;2023-05-20T01:44:08;21.0;;;14.0;;
23360;SDS011;11852;50.082;18.554;2023-05-20T01:45:52;21.0;;;14.0;;
23360;SDS011;11852;50.082;18.554;2023-05-20T01:47:22;21.0;;;14.0;;
23360;SDS011;11852;50.082;18.554;2023-05-20T01:48:30;20.0;;;13.0;;
23360;SDS011;11852;50.082;18.554;2023-05-20T01:49:38;22.0;;;15.0;;
23360;SDS011;11852;50.082;18.554;2023-05-20T01:50:45;22.0;;;15.0;;
23360;SDS011;11852;50.082;18.554;2023-05-20T01:51:54;23.0;;;15.0;;
23360;SDS011;11852;50.082;18.554;2023-05-20T01:53:13;22.0;;;14.0;;
23360;SDS011;11852;50.082;18.554;2023-05-20T01:54:31;22.0;;;14.0;;
23360;SDS011;11852;50.082;18.554;2023-05-20T01:55:52;23.0;;;15.0;;
23360;SDS011;11852;50.082;18.554;2023-05-20T01:58:00;23.0;;;15.0;;
23360;SDS011;11852;50.082;18.554;2023-05-20T01:59:06;20.0;;;14.0;;
23360;SDS011;11852;50.082;18.554;2023-05-20T02:00:14;22.0;;;15.0;;
23360;SDS011;11852;50.082;18.554;2023-05-20T02:01:31;22.0;;;15.0;;
23360;SDS011;11852;50.082;18.554;2023-05-20T02:02:43;22.0;;;15.0;;
23360;SDS011;11852;50.082;18.554;2023-05-20T02:05:03;22.0;;;15.0;;
23360;SDS011;11852;50.082;18.554;2023-05-20T02:06:10;22.0;;;15.0;;
23360;SDS011;11852;50.082;18.554;2023-05-20T02:07:18;20.0;;;15.0;;
23360;SDS011;11852;50.082;18.554;2023-05-20T02:08:27;22.0;;;15.0;;
23360;SDS011;11852;50.082;18.554;2023-05-20T02:09:52;21.0;;;15.0;;
23360;SDS011;11852;50.082;18.554;2023-05-20T02:11:28;21.0;;;15.0;;
23360;SDS011;11852;50.082;18.554;2023-05-20T02:12:35;21.0;;;15.0;;
23360;SDS011;11852;50.082;18.554;2023-05-20T02:14:28;21.0;;;15.0;;
23360;SDS011;11852;50.082;18.554;2023-05-20T02:15:35;20.0;;;14.0;;
23360;SDS011;11852;50.082;18.554;2023-05-20T02:16:49;20.0;;;14.0;;
23360;SDS011;11852;50.082;18.554;2023-05-20T02:19:06;20.0;;;14.0;;
23360;SDS011;11852;50.082;18.554;2023-05-20T02:20:34;20.0;;;14.0;;
23360;SDS011;11852;50.082;18.554;2023-05-20T02:21:41;24.0;;;16.0;;
23360;SDS011;11852;50.082;18.554;2023-05-20T02:22:48;22.0;;;15.0;;
23360;SDS011;11852;50.082;18.554;2023-05-20T02:24:02;21.0;;;16.0;;
23360;SDS011;11852;50.082;18.554;2023-05-20T02:25:20;23.0;;;16.0;;
23360;SDS011;11852;50.082;18.554;2023-05-20T02:26:27;23.0;;;16.0;;
23360;SDS011;11852;50.082;18.554;2023-05-20T02:28:17;23.0;;;16.0;;
23360;SDS011;11852;50.082;18.554;2023-05-20T02:29:38;23.0;;;16.0;;
23360;SDS011;11852;50.082;18.554;2023-05-20T02:30:45;23.0;;;15.0;;
23360;SDS011;11852;50.082;18.554;2023-05-20T02:32:48;23.0;;;15.0;;
23360;SDS011;11852;50.082;18.554;2023-05-20T02:33:56;23.0;;;15.0;;
23360;SDS011;11852;50.082;18.554;2023-05-20T02:35:03;24.0;;;16.0;;
23360;SDS011;11852;50.082;18.554;2023-05-20T02:36:13;26.0;;;16.0;;
23360;SDS011;11852;50.082;18.554;2023-05-20T02:37:26;23.0;;;16.0;;
23360;SDS011;11852;50.082;18.554;2023-05-20T02:38:43;26.0;;;16.0;;
23360;SDS011;11852;50.082;18.554;2023-05-20T02:40:34;26.0;;;16.0;;
23360;SDS011;11852;50.082;18.554;2023-05-20T02:42:26;26.0;;;16.0;;
23360;SDS011;11852;50.082;18.554;2023-05-20T02:43:55;26.0;;;16.0;;
23360;SDS011;11852;50.082;18.554;2023-05-20T02:45:40;26.0;;;16.0;;
23360;SDS011;11852;50.082;18.554;2023-05-20T02:47:00;24.0;;;16.0;;
23360;SDS011;11852;50.082;18.554;2023-05-20T02:48:07;24.0;;;17.0;;
23360;SDS011;11852;50.082;18.554;2023-05-20T02:50:52;24.0;;;17.0;;
23360;SDS011;11852;50.082;18.554;2023-05-20T02:52:58;24.0;;;17.0;;
23360;SDS011;11852;50.082;18.554;2023-05-20T02:54:07;25.0;;;17.0;;
23360;SDS011;11852;50.082;18.554;2023-05-20T02:55:15;24.0;;;17.0;;
23360;SDS011;11852;50.082;18.554;2023-05-20T02:56:31;24.0;;;16.0;;
23360;SDS011;11852;50.082;18.554;2023-05-20T02:57:39;24.0;;;16.0;;
23360;SDS011;11852;50.082;18.554;2023-05-20T02:58:57;26.0;;;17.0;;
23360;SDS011;11852;50.082;18.554;2023-05-20T03:00:24;26.0;;;16.0;;
23360;SDS011;11852;50.082;18.554;2023-05-20T03:02:21;26.0;;;16.0;;
23360;SDS011;11852;50.082;18.554;2023-05-20T03:04:38;26.0;;;16.0;;
23360;SDS011;11852;50.082;18.554;2023-05-20T03:06:13;26.0;;;16.0;;
23360;SDS011;11852;50.082;18.554;2023-05-20T03:07:19;23.0;;;16.0;;
23360;SDS011;11852;50.082;18.554;2023-05-20T03:08:57;23.0;;;16.0;;
23360;SDS011;11852;50.082;18.554;2023-05-20T03:11:16;23.0;;;16.0;;
23360;SDS011;11852;50.082;18.554;2023-05-20T03:12:46;23.0;;;16.0;;
23360;SDS011;11852;50.082;18.554;2023-05-20T03:14:15;23.0;;;15.0;;
23360;SDS011;11852;50.082;18.554;2023-05-20T03:15:40;23.0;;;16.0;;
23360;SDS011;11852;50.082;18.554;2023-05-20T03:17:24;23.0;;;16.0;;
23360;SDS011;11852;50.082;18.554;2023-05-20T03:18:31;25.0;;;16.0;;
23360;SDS011;11852;50.082;18.554;2023-05-20T03:20:15;25.0;;;16.0;;
23360;SDS011;11852;50.082;18.554;2023-05-20T03:21:27;23.0;;;15.0;;
23360;SDS011;11852;50.082;18.554;2023-05-20T03:22:34;24.0;;;16.0;;
23360;SDS011;11852;50.082;18.554;2023-05-20T03:24:05;24.0;;;16.0;;
23360;SDS011;11852;50.082;18.554;2023-05-20T03:25:14;30.0;;;16.0;;
23360;SDS011;11852;50.082;18.554;2023-05-20T03:26:52;30.0;;;16.0;;
23360;SDS011;11852;50.082;18.554;2023-05-20T03:28:10;31.0;;;17.0;;
23360;SDS011;11852;50.082;18.554;2023-05-20T03:29:41;31.0;;;17.0;;
23360;SDS011;11852;50.082;18.554;2023-05-20T03:31:34;31.0;;;17.0;;
23360;SDS011;11852;50.082;18.554;2023-05-20T03:33:34;31.0;;;17.0;;
23360;SDS011;11852;50.082;18.554;2023-05-20T03:34:41;26.0;;;17.0;;
23360;SDS011;11852;50.082;18.554;2023-05-20T03:35:55;24.0;;;17.0;;
23360;SDS011;11852;50.082;18.554;2023-05-20T03:38:02;24.0;;;17.0;;
23360;SDS011;11852;50.082;18.554;2023-05-20T03:40:14;24.0;;;17.0;;
23360;SDS011;11852;50.082;18.554;2023-05-20T03:41:38;24.0;;;16.0;;
23360;SDS011;11852;50.082;18.554;2023-05-20T03:43:12;24.0;;;16.0;;
23360;SDS011;11852;50.082;18.554;2023-05-20T03:45:02;24.0;;;16.0;;
23360;SDS011;11852;50.082;18.554;2023-05-20T03:47:22;24.0;;;16.0;;
23360;SDS011;11852;50.082;18.554;2023-05-20T03:48:29;23.0;;;16.0;;
23360;SDS011;11852;50.082;18.554;2023-05-20T03:50:20;23.0;;;16.0;;
23360;SDS011;11852;50.082;18.554;2023-05-20T03:51:43;27.0;;;15.0;;
23360;SDS011;11852;50.082;18.554;2023-05-20T03:52:56;24.0;;;15.0;;
23360;SDS011;11852;50.082;18.554;2023-05-20T03:54:05;22.0;;;14.0;;
23360;SDS011;11852;50.082;18.554;2023-05-20T03:55:19;23.0;;;15.0;;
23360;SDS011;11852;50.082;18.554;2023-05-20T03:56:33;22.0;;;15.0;;
23360;SDS011;11852;50.082;18.554;2023-05-20T03:57:59;22.0;;;15.0;;
23360;SDS011;11852;50.082;18.554;2023-05-20T03:59:17;21.0;;;15.0;;
23360;SDS011;11852;50.082;18.554;2023-05-20T04:00:26;20.0;;;13.0;;
23360;SDS011;11852;50.082;18.554;2023-05-20T04:01:56;20.0;;;14.0;;
23360;SDS011;11852;50.082;18.554;2023-05-20T04:03:03;21.0;;;14.0;;
23360;SDS011;11852;50.082;18.554;2023-05-20T04:04:56;21.0;;;14.0;;
23360;SDS011;11852;50.082;18.554;2023-05-20T04:06:31;21.0;;;14.0;;
23360;SDS011;11852;50.082;18.554;2023-05-20T04:07:38;20.0;;;12.0;;
23360;SDS011;11852;50.082;18.554;2023-05-20T04:08:56;18.0;;;13.0;;
23360;SDS011;11852;50.082;18.554;2023-05-20T04:10:05;19.0;;;13.0;;
23360;SDS011;11852;50.082;18.554;2023-05-20T04:11:54;19.0;;;13.0;;
23360;SDS011;11852;50.082;18.554;2023-05-20T04:13:10;16.0;;;11.0;;
23360;SDS011;11852;50.082;18.554;2023-05-20T04:14:18;19.0;;;12.0;;
23360;SDS011;11852;50.082;18.554;2023-05-20T04:15:36;19.0;;;12.0;;
23360;SDS011;11852;50.082;18.554;2023-05-20T04:16:45;19.0;;;12.0;;
23360;SDS011;11852;50.082;18.554;2023-05-20T04:19:14;19.0;;;12.0;;
23360;SDS011;11852;50.082;18.554;2023-05-20T04:20:21;15.0;;;10.0;;
23360;SDS011;11852;50.082;18.554;2023-05-20T04:21:29;14.0;;;10.0;;
23360;SDS011;11852;50.082;18.554;2023-05-20T04:22:47;16.0;;;10.0;;
23360;SDS011;11852;50.082;18.554;2023-05-20T04:24:03;15.0;;;10.0;;
23360;SDS011;11852;50.082;18.554;2023-05-20T04:25:37;15.0;;;10.0;;
23360;SDS011;11852;50.082;18.554;2023-05-20T04:27:16;15.0;;;10.0;;
23360;SDS011;11852;50.082;18.554;2023-05-20T04:29:10;15.0;;;10.0;;
23360;SDS011;11852;50.082;18.554;2023-05-20T04:30:37;15.0;;;7.0;;
23360;SDS011;11852;50.082;18.554;2023-05-20T04:32:33;15.0;;;7.0;;
23360;SDS011;11852;50.082;18.554;2023-05-20T04:33:47;12.0;;;8.0;;
23360;SDS011;11852;50.082;18.554;2023-05-20T04:35:13;12.0;;;8.0;;
23360;SDS011;11852;50.082;18.554;2023-05-20T04:36:29;11.0;;;7.0;;
23360;SDS011;11852;50.082;18.554;2023-05-20T04:37:42;12.0;;;7.0;;
23360;SDS011;11852;50.082;18.554;2023-05-20T04:38:48;10.0;;;7.0;;
23360;SDS011;11852;50.082;18.554;2023-05-20T04:39:56;12.0;;;7.0;;
23360;SDS011;11852;50.082;18.554;2023-05-20T04:41:03;14.0;;;7.0;;
23360;SDS011;11852;50.082;18.554;2023-05-20T04:42:10;11.0;;;7.0;;
23360;SDS011;11852;50.082;18.554;2023-05-20T04:43:17;12.0;;;7.0;;
23360;SDS011;11852;50.082;18.554;2023-05-20T04:44:54;12.0;;;7.0;;
23360;SDS011;11852;50.082;18.554;2023-05-20T04:46:11;10.0;;;7.0;;
23360;SDS011;11852;50.082;18.554;2023-05-20T04:50:18;9.0;;;6.0;;
23360;SDS011;11852;50.082;18.554;2023-05-20T04:52:02;9.0;;;6.0;;
23360;SDS011;11852;50.082;18.554;2023-05-20T04:53:19;11.0;;;7.0;;
23360;SDS011;11852;50.082;18.554;2023-05-20T04:55:46;11.0;;;7.0;;
23360;SDS011;11852;50.082;18.554;2023-05-20T04:57:00;11.0;;;7.0;;
23360;SDS011;11852;50.082;18.554;2023-05-20T04:58:16;11.0;;;7.0;;
23360;SDS011;11852;50.082;18.554;2023-05-20T04:59:23;10.0;;;6.0;;
23360;SDS011;11852;50.082;18.554;2023-05-20T05:01:38;10.0;;;6.0;;
23360;SDS011;11852;50.082;18.554;2023-05-20T05:02:49;10.0;;;6.0;;
23360;SDS011;11852;50.082;18.554;2023-05-20T05:04:38;10.0;;;6.0;;
23360;SDS011;11852;50.082;18.554;2023-05-20T05:05:55;8.0;;;5.0;;
23360;SDS011;11852;50.082;18.554;2023-05-20T05:07:23;8.0;;;5.0;;
23360;SDS011;11852;50.082;18.554;2023-05-20T05:08:56;8.0;;;5.0;;
23360;SDS011;11852;50.082;18.554;2023-05-20T05:10:08;9.0;;;5.0;;
23360;SDS011;11852;50.082;18.554;2023-05-20T05:11:15;8.0;;;5.0;;
23360;SDS011;11852;50.082;18.554;2023-05-20T05:12:22;9.0;;;5.0;;
23360;SDS011;11852;50.082;18.554;2023-05-20T05:13:55;9.0;;;5.0;;
23360;SDS011;11852;50.082;18.554;2023-05-20T05:15:16;8.0;;;4.0;;
23360;SDS011;11852;50.082;18.554;2023-05-20T05:16:48;8.0;;;4.0;;
23360;SDS011;11852;50.082;18.554;2023-05-20T05:17:55;8.0;;;5.0;;
23360;SDS011;11852;50.082;18.554;2023-05-20T05:19:09;7.0;;;5.0;;
23360;SDS011;11852;50.082;18.554;2023-05-20T05:20:16;7.0;;;5.0;;
23360;SDS011;11852;50.082;18.554;2023-05-20T05:22:00;7.0;;;5.0;;
23360;SDS011;11852;50.082;18.554;2023-05-20T05:23:14;8.0;;;5.0;;
23360;SDS011;11852;50.082;18.554;2023-05-20T05:24:21;7.0;;;4.0;;
23360;SDS011;11852;50.082;18.554;2023-05-20T05:25:53;7.0;;;4.0;;
23360;SDS011;11852;50.082;18.554;2023-05-20T05:27:01;7.0;;;5.0;;
23360;SDS011;11852;50.082;18.554;2023-05-20T05:28:09;7.0;;;5.0;;
23360;SDS011;11852;50.082;18.554;2023-05-20T05:29:31;7.0;;;4.0;;
23360;SDS011;11852;50.082;18.554;2023-05-20T05:30:39;7.0;;;4.0;;
23360;SDS011;11852;50.082;18.554;2023-05-20T05:31:47;6.0;;;4.0;;
23360;SDS011;11852;50.082;18.554;2023-05-20T05:33:15;6.0;;;4.0;;
23360;SDS011;11852;50.082;18.554;2023-05-20T05:34:35;6.0;;;4.0;;
23360;SDS011;11852;50.082;18.554;2023-05-20T05:35:42;7.0;;;4.0;;
23360;SDS011;11852;50.082;18.554;2023-05-20T05:37:11;7.0;;;4.0;;
23360;SDS011;11852;50.082;18.554;2023-05-20T05:38:18;7.0;;;4.0;;
23360;SDS011;11852;50.082;18.554;2023-05-20T05:39:33;6.0;;;4.0;;
23360;SDS011;11852;50.082;18.554;2023-05-20T05:40:50;6.0;;;3.0;;
23360;SDS011;11852;50.082;18.554;2023-05-20T05:42:24;6.0;;;3.0;;
23360;SDS011;11852;50.082;18.554;2023-05-20T05:43:41;7.0;;;4.0;;
23360;SDS011;11852;50.082;18.554;2023-05-20T05:45:12;7.0;;;4.0;;
23360;SDS011;11852;50.082;18.554;2023-05-20T05:46:50;7.0;;;4.0;;
23360;SDS011;11852;50.082;18.554;2023-05-20T05:47:59;9.0;;;4.0;;
23360;SDS011;11852;50.082;18.554;2023-05-20T05:49:06;7.0;;;4.0;;
23360;SDS011;11852;50.082;18.554;2023-05-20T05:50:13;8.0;;;4.0;;
23360;SDS011;11852;50.082;18.554;2023-05-20T05:51:20;5.0;;;4.0;;
23360;SDS011;11852;50.082;18.554;2023-05-20T05:52:32;8.0;;;4.0;;
23360;SDS011;11852;50.082;18.554;2023-05-20T05:53:46;8.0;;;4.0;;
23360;SDS011;11852;50.082;18.554;2023-05-20T05:55:19;8.0;;;4.0;;
23360;SDS011;11852;50.082;18.554;2023-05-20T05:57:17;8.0;;;4.0;;
23360;SDS011;11852;50.082;18.554;2023-05-20T05:58:45;8.0;;;4.0;;
23360;SDS011;11852;50.082;18.554;2023-05-20T06:00:43;8.0;;;4.0;;
23360;SDS011;11852;50.082;18.554;2023-05-20T06:01:50;7.0;;;4.0;;
23360;SDS011;11852;50.082;18.554;2023-05-20T06:02:57;7.0;;;4.0;;
23360;SDS011;11852;50.082;18.554;2023-05-20T06:04:08;7.0;;;4.0;;
23360;SDS011;11852;50.082;18.554;2023-05-20T06:05:15;5.0;;;3.0;;
23360;SDS011;11852;50.082;18.554;2023-05-20T06:06:22;6.0;;;4.0;;
23360;SDS011;11852;50.082;18.554;2023-05-20T06:07:34;6.0;;;4.0;;
23360;SDS011;11852;50.082;18.554;2023-05-20T06:09:30;6.0;;;4.0;;
23360;SDS011;11852;50.082;18.554;2023-05-20T06:10:57;6.0;;;4.0;;
23360;SDS011;11852;50.082;18.554;2023-05-20T06:12:59;6.0;;;4.0;;
23360;SDS011;11852;50.082;18.554;2023-05-20T06:14:33;6.0;;;4.0;;
23360;SDS011;11852;50.082;18.554;2023-05-20T06:27:51;8.0;;;4.0;;
23360;SDS011;11852;50.082;18.554;2023-05-20T06:41:05;10.0;;;5.0;;
23360;SDS011;11852;50.082;18.554;2023-05-20T06:42:23;7.0;;;4.0;;
23360;SDS011;11852;50.082;18.554;2023-05-20T06:46:51;7.0;;;4.0;;
23360;SDS011;11852;50.082;18.554;2023-05-20T06:52:35;7.0;;;4.0;;
23360;SDS011;11852;50.082;18.554;2023-05-20T07:30:45;9.0;;;6.0;;
23360;SDS011;11852;50.082;18.554;2023-05-20T07:31:52;10.0;;;7.0;;
23360;SDS011;11852;50.082;18.554;2023-05-20T07:33:11;8.0;;;6.0;;
23360;SDS011;11852;50.082;18.554;2023-05-20T07:34:19;10.0;;;7.0;;
23360;SDS011;11852;50.082;18.554;2023-05-20T07:35:29;10.0;;;7.0;;
23360;SDS011;11852;50.082;18.554;2023-05-20T07:36:41;8.0;;;5.0;;
23360;SDS011;11852;50.082;18.554;2023-05-20T07:44:34;10.0;;;7.0;;
23360;SDS011;11852;50.082;18.554;2023-05-20T07:49:03;9.0;;;7.0;;
23360;SDS011;11852;50.082;18.554;2023-05-20T07:50:10;11.0;;;7.0;;
23360;SDS011;11852;50.082;18.554;2023-05-20T08:29:38;9.0;;;5.0;;
23360;SDS011;11852;50.082;18.554;2023-05-20T08:38:04;9.0;;;5.0;;
23360;SDS011;11852;50.082;18.554;2023-05-20T08:51:14;8.0;;;6.0;;
23360;SDS011;11852;50.082;18.554;2023-05-20T09:13:42;8.0;;;6.0;;
23360;SDS011;11852;50.082;18.554;2023-05-20T09:16:27;8.0;;;6.0;;
23360;SDS011;11852;50.082;18.554;2023-05-20T09:43:30;12.0;;;7.0;;
23360;SDS011;11852;50.082;18.554;2023-05-20T09:48:26;10.0;;;7.0;;
23360;SDS011;11852;50.082;18.554;2023-05-20T09:52:49;11.0;;;6.0;;
23360;SDS011;11852;50.082;18.554;2023-05-20T09:53:56;9.0;;;7.0;;
23360;SDS011;11852;50.082;18.554;2023-05-20T09:55:07;13.0;;;7.0;;
23360;SDS011;11852;50.082;18.554;2023-05-20T09:56:21;11.0;;;7.0;;
23360;SDS011;11852;50.082;18.554;2023-05-20T09:58:31;10.0;;;7.0;;
23360;SDS011;11852;50.082;18.554;2023-05-20T09:59:41;12.0;;;8.0;;
23360;SDS011;11852;50.082;18.554;2023-05-20T10:01:01;11.0;;;8.0;;
23360;SDS011;11852;50.082;18.554;2023-05-20T10:02:08;10.0;;;8.0;;
23360;SDS011;11852;50.082;18.554;2023-05-20T10:03:58;10.0;;;8.0;;
23360;SDS011;11852;50.082;18.554;2023-05-20T10:05:13;10.0;;;7.0;;
23360;SDS011;11852;50.082;18.554;2023-05-20T10:17:16;11.0;;;8.0;;
23360;SDS011;11852;50.082;18.554;2023-05-20T10:20:45;12.0;;;8.0;;
23360;SDS011;11852;50.082;18.554;2023-05-20T10:21:58;13.0;;;7.0;;
23360;SDS011;11852;50.082;18.554;2023-05-20T10:23:04;10.0;;;8.0;;
23360;SDS011;11852;50.082;18.554;2023-05-20T10:24:46;10.0;;;8.0;;
23360;SDS011;11852;50.082;18.554;2023-05-20T10:25:53;12.0;;;8.0;;
23360;SDS011;11852;50.082;18.554;2023-05-20T10:27:00;11.0;;;8.0;;
23360;SDS011;11852;50.082;18.554;2023-05-20T10:28:07;11.0;;;8.0;;
23360;SDS011;11852;50.082;18.554;2023-05-20T10:30:48;12.0;;;8.0;;
23360;SDS011;11852;50.082;18.554;2023-05-20T10:31:55;11.0;;;8.0;;
23360;SDS011;11852;50.082;18.554;2023-05-20T10:33:03;11.0;;;9.0;;
23360;SDS011;11852;50.082;18.554;2023-05-20T10:34:16;11.0;;;8.0;;
23360;SDS011;11852;50.082;18.554;2023-05-20T10:35:23;11.0;;;8.0;;
23360;SDS011;11852;50.082;18.554;2023-05-20T10:36:43;10.0;;;7.0;;
23360;SDS011;11852;50.082;18.554;2023-05-20T10:38:29;10.0;;;7.0;;
23360;SDS011;11852;50.082;18.554;2023-05-20T10:39:36;12.0;;;9.0;;
23360;SDS011;11852;50.082;18.554;2023-05-20T10:40:51;13.0;;;7.0;;
23360;SDS011;11852;50.082;18.554;2023-05-20T10:43:25;12.0;;;8.0;;
23360;SDS011;11852;50.082;18.554;2023-05-20T10:44:51;12.0;;;9.0;;
23360;SDS011;11852;50.082;18.554;2023-05-20T10:45:59;11.0;;;9.0;;
23360;SDS011;11852;50.082;18.554;2023-05-20T10:47:15;11.0;;;8.0;;
23360;SDS011;11852;50.082;18.554;2023-05-20T10:48:30;12.0;;;9.0;;
23360;SDS011;11852;50.082;18.554;2023-05-20T10:49:57;13.0;;;9.0;;
23360;SDS011;11852;50.082;18.554;2023-05-20T10:50:48;12.0;;;9.0;;
23360;SDS011;11852;50.082;18.554;2023-05-20T10:52:10;13.0;;;10.0;;
23360;SDS011;11852;50.082;18.554;2023-05-20T10:53:17;15.0;;;10.0;;
23360;SDS011;11852;50.082;18.554;2023-05-20T10:54:55;15.0;;;10.0;;
23360;SDS011;11852;50.082;18.554;2023-05-20T10:56:35;15.0;;;10.0;;
23360;SDS011;11852;50.082;18.554;2023-05-20T10:57:41;13.0;;;11.0;;
23360;SDS011;11852;50.082;18.554;2023-05-20T10:58:49;17.0;;;10.0;;
23360;SDS011;11852;50.082;18.554;2023-05-20T11:00:12;34.0;;;12.0;;
23360;SDS011;11852;50.082;18.554;2023-05-20T11:01:27;14.0;;;11.0;;
23360;SDS011;11852;50.082;18.554;2023-05-20T11:02:34;16.0;;;11.0;;
23360;SDS011;11852;50.082;18.554;2023-05-20T11:03:48;16.0;;;11.0;;
23360;SDS011;11852;50.082;18.554;2023-05-20T11:04:59;16.0;;;11.0;;
23360;SDS011;11852;50.082;18.554;2023-05-20T11:08:34;16.0;;;12.0;;
23360;SDS011;11852;50.082;18.554;2023-05-20T11:09:56;16.0;;;12.0;;
23360;SDS011;11852;50.082;18.554;2023-05-20T11:11:18;15.0;;;11.0;;
23360;SDS011;11852;50.082;18.554;2023-05-20T11:12:26;16.0;;;12.0;;
23360;SDS011;11852;50.082;18.554;2023-05-20T11:13:42;17.0;;;12.0;;
23360;SDS011;11852;50.082;18.554;2023-05-20T11:14:52;19.0;;;13.0;;
23360;SDS011;11852;50.082;18.554;2023-05-20T11:16:01;15.0;;;12.0;;
23360;SDS011;11852;50.082;18.554;2023-05-20T11:17:08;17.0;;;13.0;;
23360;SDS011;11852;50.082;18.554;2023-05-20T11:18:29;16.0;;;13.0;;
23360;SDS011;11852;50.082;18.554;2023-05-20T11:19:36;18.0;;;12.0;;
23360;SDS011;11852;50.082;18.554;2023-05-20T11:20:45;18.0;;;12.0;;
23360;SDS011;11852;50.082;18.554;2023-05-20T11:21:54;16.0;;;13.0;;
23360;SDS011;11852;50.082;18.554;2023-05-20T11:23:10;15.0;;;11.0;;
23360;SDS011;11852;50.082;18.554;2023-05-20T11:25:27;14.0;;;11.0;;
23360;SDS011;11852;50.082;18.554;2023-05-20T11:26:35;16.0;;;12.0;;
23360;SDS011;11852;50.082;18.554;2023-05-20T11:27:42;16.0;;;11.0;;
23360;SDS011;11852;50.082;18.554;2023-05-20T11:28:53;16.0;;;11.0;;
23360;SDS011;11852;50.082;18.554;2023-05-20T11:30:00;15.0;;;11.0;;
23360;SDS011;11852;50.082;18.554;2023-05-20T11:31:12;17.0;;;12.0;;
23360;SDS011;11852;50.082;18.554;2023-05-20T11:32:25;16.0;;;11.0;;
23360;SDS011;11852;50.082;18.554;2023-05-20T11:33:42;16.0;;;11.0;;
23360;SDS011;11852;50.082;18.554;2023-05-20T11:34:53;16.0;;;12.0;;
23360;SDS011;11852;50.082;18.554;2023-05-20T11:36:11;14.0;;;11.0;;
23360;SDS011;11852;50.082;18.554;2023-05-20T11:37:17;17.0;;;11.0;;
23360;SDS011;11852;50.082;18.554;2023-05-20T11:38:25;14.0;;;11.0;;
23360;SDS011;11852;50.082;18.554;2023-05-20T11:39:36;14.0;;;11.0;;
23360;SDS011;11852;50.082;18.554;2023-05-20T11:42:10;13.0;;;11.0;;
23360;SDS011;11852;50.082;18.554;2023-05-20T11:43:17;13.0;;;11.0;;
23360;SDS011;11852;50.082;18.554;2023-05-20T11:44:34;14.0;;;10.0;;
23360;SDS011;11852;50.082;18.554;2023-05-20T11:46:06;14.0;;;10.0;;